Clarkesville, Georgia
Current Conditions -  °F | °C
As of 12:15 PM on Sunday 21 Dec 2014 (Local Time) from KTOC Reporting Station
Overcast Overcast  
Wind Chill: 47°   Ceiling: 1200
Heat Index: 47°   Visibility: 10mi
Dew Point: 42°   Wind: 0mph
Humidity: 82%   Direction: NA
Pressure: 30.21"   Gusts: NA
Location:  34.61°N, 83.52°W
Report Text: KTOC 211715Z AUTO 00000KT 10SM OVC012 09/06 A3021 RMK AO2 T00850055
Loading
Personal Weather Stations






























Interactive Weather Map New forecast layout! Learn more

10-Day Weather Forecast

Advertisements
Track Severe Weather on mobile